Portada
METAR-TAF:

METAR-TAF

Aeroports :

Elsenborn

Bütgenbach, Bèlgica

latitud: 50-28N, longitud: 006-11E, altitud: 564 m

Observació

L'informe es va fer fa 36 minuts, a les 14:25 UTC
Vent 6 kt del Oest
Temperatura 17°C
Humitat 68%
Pressió 1021 hPa
Visibilitat 10 km o més

METAR: EBLB 161425Z AUTO 28006KT 9999 BKN021/// 17/11 Q1021 WHT

Hora: 17:01 (15:01 UTC)


TAF: manca

Observacions i pronòstics meteorològics de més de 4000 aeroports (METAR i TAF).

Les estacions disponibles són els punts grocs i vermells al mapa.

Posi el ratolí al punt desitjat per veure el nom de l'estació.

Feu clic per veure les observacions i els pronòstics meteorològics.

Per canviar el mapa: feu clic els botons verds amb una creu de color negre per apropar; al botó verd amb un guió per allunyar la imatge; o en les fletxes verdes per a mapes adjacents.


METAR-TAF: